Time;durP1;ratioP1;P1;durP2;ratioP2;P2;SDS_P1;SDS_P2;PMS_P1;PMS_P2;Temp;Humidity;BMP_temperature;BMP_pressure;BME280_temperature;BME280_humidity;BME280_pressure;Samples;Min_cycle;Max_cycle;Signal;HPM_P1;HPM_P2
2023/05/06 00:01:56;;;;;;;9.27;5.13;;;;;;;10.93;72.40;101066.59;4928989;28;20230;-72
2023/05/06 00:07:13;;;;;;;6.80;5.60;;;;;;;10.82;73.02;101043.50;4920998;28;20282;-72
2023/05/06 00:09:40;;;;;;;10.43;5.70;;;;;;;10.74;73.53;101037.16;4929607;28;20236;-72
2023/05/06 00:12:07;;;;;;;8.67;6.20;;;;;;;10.69;74.19;101037.31;4933594;28;20576;-72
2023/05/06 00:14:33;;;;;;;7.80;5.90;;;;;;;10.66;74.65;101045.84;4929403;28;20609;-72
2023/05/06 00:17:00;;;;;;;7.00;5.17;;;;;;;10.62;73.51;101041.53;4927259;28;20218;-73
2023/05/06 00:19:26;;;;;;;8.23;5.70;;;;;;;10.57;74.63;101039.03;4936971;28;20231;-72
2023/05/06 00:21:52;;;;;;;10.13;5.60;;;;;;;10.53;75.35;101038.13;4930346;28;20211;-73
2023/05/06 00:24:19;;;;;;;9.67;5.57;;;;;;;10.50;75.03;101034.25;4933107;28;20211;-73
2023/05/06 00:26:46;;;;;;;9.43;6.50;;;;;;;10.47;75.09;101032.25;4932997;28;20218;-72
2023/05/06 00:29:13;;;;;;;9.57;5.90;;;;;;;10.43;76.32;101033.94;4930425;28;20239;-72
2023/05/06 00:31:40;;;;;;;10.13;6.10;;;;;;;10.40;75.55;101026.63;4935115;28;20221;-73
2023/05/06 00:34:06;;;;;;;12.37;5.97;;;;;;;10.38;76.67;101022.75;4931031;28;20252;-73
2023/05/06 00:36:33;;;;;;;10.07;6.07;;;;;;;10.33;76.57;101023.72;4917969;29;20228;-72
2023/05/06 00:38:59;;;;;;;7.30;5.87;;;;;;;10.31;76.73;101017.94;4930899;28;20758;-72
2023/05/06 00:41:26;;;;;;;7.67;5.77;;;;;;;10.27;76.77;101018.91;4914301;29;20563;-72
2023/05/06 00:43:53;;;;;;;7.33;5.77;;;;;;;10.25;76.46;101015.81;4928398;28;20226;-72
2023/05/06 00:46:19;;;;;;;7.70;6.03;;;;;;;10.22;76.85;101019.84;4913580;28;20218;-72
2023/05/06 00:48:46;;;;;;;12.20;6.13;;;;;;;10.19;77.72;101019.69;4933508;28;20229;-72
2023/05/06 00:51:13;;;;;;;10.63;6.07;;;;;;;10.16;77.66;101022.94;4931527;28;20226;-72
2023/05/06 00:53:39;;;;;;;8.37;6.10;;;;;;;10.14;77.26;101027.78;4932511;28;20236;-72
2023/05/06 00:56:07;;;;;;;7.07;5.90;;;;;;;10.11;77.67;101015.97;4929556;28;20206;-72
2023/05/06 00:58:34;;;;;;;10.23;7.00;;;;;;;10.10;77.49;101016.28;4914014;28;20492;-72
2023/05/06 01:01:02;;;;;;;14.20;6.53;;;;;;;10.07;77.61;101011.59;4930979;28;20519;-72
2023/05/06 01:03:28;;;;;;;10.43;6.63;;;;;;;10.05;78.17;101011.91;4929377;28;20594;-72
2023/05/06 01:06:12;;;;;;;13.83;7.13;;;;;;;10.03;78.20;101011.44;4934244;28;20233;-72
2023/05/06 01:08:46;;;;;;;10.13;6.83;;;;;;;10.02;78.35;101004.59;4915212;29;20239;-71
2023/05/06 01:11:16;;;;;;;8.97;6.03;;;;;;;10.01;78.65;101002.28;4913966;28;20228;-71
2023/05/06 01:13:48;;;;;;;9.57;6.13;;;;;;;9.98;79.10;100995.75;4910659;28;20233;-70
2023/05/06 01:16:23;;;;;;;11.00;7.20;;;;;;;9.96;78.40;100986.59;4931175;28;20211;-71
2023/05/06 01:19:09;;;;;;;10.90;7.23;;;;;;;9.94;78.96;100988.78;4915479;28;20212;-71
2023/05/06 01:21:51;;;;;;;9.57;6.80;;;;;;;9.92;79.49;100978.53;4933446;28;20202;-72
2023/05/06 01:24:19;;;;;;;10.60;7.00;;;;;;;9.90;79.16;100993.13;4930543;28;20234;-70
2023/05/06 01:26:45;;;;;;;13.77;6.80;;;;;;;9.89;79.39;100988.94;4919206;29;20233;-71
2023/05/06 01:29:12;;;;;;;11.43;7.10;;;;;;;9.87;79.30;100991.88;4932901;28;20224;-70
2023/05/06 01:31:44;;;;;;;9.70;6.53;;;;;;;9.87;79.20;100996.38;4933935;28;20209;-69
2023/05/06 01:34:17;;;;;;;7.63;6.23;;;;;;;9.86;79.49;100989.53;4932498;28;20568;-70
2023/05/06 01:36:53;;;;;;;8.47;6.57;;;;;;;9.84;79.78;100989.09;4934202;28;20218;-70
2023/05/06 01:39:25;;;;;;;10.30;7.23;;;;;;;9.83;79.52;100990.19;4931927;28;20555;-71
2023/05/06 01:41:56;;;;;;;10.80;7.03;;;;;;;9.82;79.59;100978.84;4933685;28;20590;-70
2023/05/06 01:44:23;;;;;;;9.03;7.33;;;;;;;9.82;79.51;100967.50;4929780;28;21260;-70
2023/05/06 01:46:51;;;;;;;10.13;6.77;;;;;;;9.81;79.80;100965.97;4935174;28;20500;-70
2023/05/06 01:49:20;;;;;;;11.00;7.03;;;;;;;9.78;79.64;100967.34;4916161;28;20557;-71
2023/05/06 01:51:49;;;;;;;9.77;7.00;;;;;;;9.78;80.10;100956.81;4935316;28;20691;-70
2023/05/06 01:54:16;;;;;;;11.10;6.77;;;;;;;9.77;79.67;100970.28;4913773;28;20237;-71
2023/05/06 01:56:43;;;;;;;13.17;7.13;;;;;;;9.75;79.81;100965.34;4934529;28;20212;-69
2023/05/06 01:59:50;;;;;;;10.10;7.00;;;;;;;9.74;80.01;100963.03;4914073;28;20638;-71
2023/05/06 02:02:48;;;;;;;9.50;7.07;;;;;;;9.72;79.62;100960.69;4915660;28;20432;-70
2023/05/06 02:05:23;;;;;;;8.13;6.47;;;;;;;9.72;80.08;100957.25;4911580;28;20262;-71
2023/05/06 02:07:54;;;;;;;10.63;7.00;;;;;;;9.71;80.48;100958.34;4914515;28;20249;-70
2023/05/06 02:10:20;;;;;;;9.97;6.77;;;;;;;9.70;80.27;100962.09;4926054;28;20973;-71
2023/05/06 02:12:55;;;;;;;10.23;7.17;;;;;;;9.69;80.33;100961.28;4914299;28;20227;-71
2023/05/06 02:15:22;;;;;;;10.53;7.70;;;;;;;9.69;80.40;100958.66;4935458;28;20221;-71
2023/05/06 02:17:49;;;;;;;11.97;7.20;;;;;;;9.69;80.71;100974.47;4916814;28;20216;-71
2023/05/06 02:20:15;;;;;;;12.27;7.73;;;;;;;9.68;80.06;100978.22;4915015;28;20199;-70
2023/05/06 02:22:41;;;;;;;8.90;7.37;;;;;;;9.69;80.69;100977.13;4914127;28;20248;-70
2023/05/06 02:25:11;;;;;;;11.10;6.77;;;;;;;9.67;80.43;100967.97;4932097;28;20226;-70
2023/05/06 02:27:38;;;;;;;10.70;7.47;;;;;;;9.67;80.64;100963.47;4929557;28;20303;-71
2023/05/06 02:30:07;;;;;;;8.50;6.30;;;;;;;9.65;80.71;100956.97;4931790;28;20731;-70
2023/05/06 02:32:33;;;;;;;9.80;6.90;;;;;;;9.64;80.88;100943.00;4929464;28;20231;-71
2023/05/06 02:34:59;;;;;;;8.90;7.20;;;;;;;9.63;80.92;100948.59;4933696;28;21843;-70
2023/05/06 02:37:26;;;;;;;8.87;6.33;;;;;;;9.63;80.81;100956.50;4934081;28;20216;-71
2023/05/06 02:39:53;;;;;;;10.20;6.90;;;;;;;9.62;80.76;100958.34;4918442;28;20228;-69
2023/05/06 02:42:19;;;;;;;12.03;7.40;;;;;;;9.61;80.73;100951.53;4927685;28;20243;-70
2023/05/06 02:44:46;;;;;;;8.73;7.03;;;;;;;9.60;81.02;100942.09;4931439;28;20869;-69
2023/05/06 02:47:14;;;;;;;16.40;7.83;;;;;;;9.60;81.11;100941.28;4931269;28;20201;-71
2023/05/06 02:49:40;;;;;;;13.93;7.63;;;;;;;9.59;81.03;100943.16;4919601;28;20388;-70
2023/05/06 02:52:07;;;;;;;11.20;7.30;;;;;;;9.57;80.74;100937.41;4915351;28;20239;-70
2023/05/06 02:54:33;;;;;;;11.67;7.37;;;;;;;9.58;81.18;100938.19;4934909;28;20231;-70
2023/05/06 02:57:00;;;;;;;9.53;7.57;;;;;;;9.56;81.34;100935.09;4936104;28;20346;-70
2023/05/06 02:59:26;;;;;;;9.30;7.30;;;;;;;9.55;81.22;100947.50;4915682;28;20208;-70
2023/05/06 03:01:52;;;;;;;12.53;7.53;;;;;;;9.54;81.00;100945.97;4916022;28;20218;-70
2023/05/06 03:04:20;;;;;;;10.20;7.37;;;;;;;9.54;80.87;100945.16;4914770;28;20220;-70
2023/05/06 03:06:46;;;;;;;12.23;7.27;;;;;;;9.54;81.11;100947.81;4916104;28;20204;-70
2023/05/06 03:09:14;;;;;;;10.27;7.40;;;;;;;9.54;81.20;100955.72;4929868;28;20228;-70
2023/05/06 03:11:40;;;;;;;11.60;8.13;;;;;;;9.52;81.06;100950.75;4917888;28;20227;-69
2023/05/06 03:14:07;;;;;;;11.67;7.80;;;;;;;9.52;81.08;100942.84;4917255;28;20239;-71
2023/05/06 03:16:33;;;;;;;11.73;7.33;;;;;;;9.50;81.34;100936.31;4934140;28;20220;-71
2023/05/06 03:19:02;;;;;;;14.13;7.43;;;;;;;9.49;81.55;100953.22;4916803;28;20345;-69
2023/05/06 03:21:30;;;;;;;10.17;7.20;;;;;;;9.47;81.63;100945.63;4913474;28;20223;-71
2023/05/06 03:23:57;;;;;;;12.13;7.53;;;;;;;9.46;81.63;100935.38;4916431;28;20234;-70
2023/05/06 03:26:25;;;;;;;11.17;6.87;;;;;;;9.44;82.24;100916.47;4913598;28;20705;-70
2023/05/06 03:28:52;;;;;;;13.73;7.20;;;;;;;9.41;82.08;100903.91;4919224;28;20232;-71
2023/05/06 03:31:21;;;;;;;11.00;7.43;;;;;;;9.40;82.17;100913.69;4912745;28;20212;-71
2023/05/06 03:33:47;;;;;;;8.80;7.00;;;;;;;9.41;82.18;100909.19;4917358;28;20267;-70
2023/05/06 03:36:14;;;;;;;9.80;6.80;;;;;;;9.39;82.27;100906.09;4914561;28;20231;-70
2023/05/06 03:38:44;;;;;;;11.63;7.40;;;;;;;9.39;82.50;100908.72;4914689;28;20213;-72
2023/05/06 03:41:12;;;;;;;11.90;7.57;;;;;;;9.36;82.92;100901.41;4931059;28;20675;-71
2023/05/06 03:43:38;;;;;;;12.63;7.87;;;;;;;9.37;82.60;100900.34;4922913;28;20590;-71
2023/05/06 03:46:06;;;;;;;13.63;8.37;;;;;;;9.36;82.42;100914.59;4920519;28;20200;-71
2023/05/06 03:48:35;;;;;;;13.83;7.97;;;;;;;9.35;82.58;100903.28;4918478;28;20225;-70
2023/05/06 03:51:02;;;;;;;11.40;7.90;;;;;;;9.35;82.64;100905.94;4934653;28;20213;-71
2023/05/06 03:53:29;;;;;;;12.47;7.73;;;;;;;9.32;82.67;100900.50;4915756;28;21953;-72
2023/05/06 03:55:56;;;;;;;9.47;6.93;;;;;;;9.32;82.77;100892.59;4919134;28;20422;-71
2023/05/06 03:58:23;;;;;;;8.90;7.10;;;;;;;9.31;82.72;100899.72;4932699;28;20235;-71
2023/05/06 04:00:50;;;;;;;15.37;7.47;;;;;;;9.30;82.33;100911.34;4915733;28;20300;-72
2023/05/06 04:03:17;;;;;;;10.90;7.63;;;;;;;9.30;82.41;100915.84;4936109;28;20233;-72
2023/05/06 04:05:48;;;;;;;13.90;7.77;;;;;;;9.30;82.29;100913.19;4918821;29;20209;-72
2023/05/06 04:08:17;;;;;;;11.33;7.60;;;;;;;9.29;82.76;100909.81;4920605;28;20686;-72
2023/05/06 04:10:45;;;;;;;10.87;7.30;;;;;;;9.28;82.97;100902.19;4934878;28;20694;-72
2023/05/06 04:13:19;;;;;;;14.57;8.23;;;;;;;9.25;82.93;100906.22;4916951;28;20224;-72
2023/05/06 04:15:46;;;;;;;9.07;7.63;;;;;;;9.25;82.92;100905.44;4922513;28;20701;-72
2023/05/06 04:18:18;;;;;;;11.17;7.93;;;;;;;9.24;82.76;100907.31;4919281;28;20234;-72
2023/05/06 04:20:51;;;;;;;12.93;7.77;;;;;;;9.23;82.71;100918.94;4919777;28;20202;-71
2023/05/06 04:23:17;;;;;;;10.60;7.70;;;;;;;9.22;82.47;100913.97;4938359;28;20313;-72
2023/05/06 04:25:47;;;;;;;13.30;8.07;;;;;;;9.22;82.66;100916.63;4938492;28;20214;-72
2023/05/06 04:28:16;;;;;;;13.03;8.63;;;;;;;9.21;82.93;100915.06;4917931;28;20634;-72
2023/05/06 04:30:45;;;;;;;14.57;8.00;;;;;;;9.20;82.93;100906.38;4916854;28;20203;-71
2023/05/06 04:33:14;;;;;;;10.60;8.60;;;;;;;9.18;83.05;100907.75;4914642;28;20235;-71
2023/05/06 04:35:41;;;;;;;9.17;7.47;;;;;;;9.17;82.85;100911.50;4933692;28;20559;-72
2023/05/06 04:38:14;;;;;;;11.43;8.53;;;;;;;9.16;83.36;100908.06;4916832;28;20211;-73
2023/05/06 04:44:01;;;;;;;12.07;8.23;;;;;;;9.13;83.02;100907.91;4934689;28;20598;-73
2023/05/06 04:46:56;;;;;;;14.57;9.00;;;;;;;9.13;82.87;100907.91;4917420;28;20215;-73
2023/05/06 04:49:32;;;;;;;10.33;8.50;;;;;;;9.11;83.41;100916.13;4919238;28;20800;-73
2023/05/06 04:52:06;;;;;;;11.90;8.23;;;;;;;9.11;83.02;100926.66;4919371;28;20218;-73
2023/05/06 04:54:33;;;;;;;13.27;8.17;;;;;;;9.12;83.38;100916.91;4935761;28;20204;-72
2023/05/06 04:57:00;;;;;;;15.03;8.00;;;;;;;9.12;82.90;100919.53;4918815;28;20199;-71
2023/05/06 04:59:27;;;;;;;14.00;8.07;;;;;;;9.12;82.64;100914.28;4921626;28;20203;-71
2023/05/06 05:01:55;;;;;;;12.13;8.57;;;;;;;9.12;82.65;100916.91;4919973;28;20289;-70
2023/05/06 05:04:21;;;;;;;11.07;8.43;;;;;;;9.14;83.36;100920.00;4931263;28;20214;-70
2023/05/06 05:06:48;;;;;;;12.67;8.40;;;;;;;9.14;83.19;100914.72;4917357;28;20684;-71
2023/05/06 05:09:15;;;;;;;12.23;8.37;;;;;;;9.15;83.14;100914.44;4918154;28;20221;-70
2023/05/06 05:11:44;;;;;;;12.93;8.77;;;;;;;9.17;82.79;100924.66;4916549;29;20483;-72
2023/05/06 05:14:10;;;;;;;13.47;7.70;;;;;;;9.16;83.53;100921.25;4937264;28;20356;-71
2023/05/06 05:16:37;;;;;;;11.80;8.53;;;;;;;9.17;83.26;100922.03;4936064;28;20307;-71
2023/05/06 05:19:06;;;;;;;11.90;8.40;;;;;;;9.18;83.40;100926.22;4918853;28;21118;-72
2023/05/06 05:21:33;;;;;;;11.07;8.17;;;;;;;9.18;83.08;100931.47;4919538;28;20211;-72
2023/05/06 05:24:00;;;;;;;10.60;7.67;;;;;;;9.18;83.15;100927.00;4935159;28;20238;-72
2023/05/06 05:26:26;;;;;;;9.53;7.47;;;;;;;9.19;83.07;100933.81;4918402;28;20209;-71
2023/05/06 05:28:54;;;;;;;11.30;7.90;;;;;;;9.17;82.97;100940.47;4915631;28;20642;-72
2023/05/06 05:31:23;;;;;;;10.20;7.60;;;;;;;9.19;83.28;100940.94;4937524;28;20216;-71
2023/05/06 05:33:50;;;;;;;12.30;7.40;;;;;;;9.19;83.10;100933.03;4937833;28;20227;-71
2023/05/06 05:36:21;;;;;;;11.93;8.37;;;;;;;9.18;82.84;100934.91;4935371;28;20211;-72
2023/05/06 05:38:50;;;;;;;10.60;7.17;;;;;;;9.19;83.10;100931.19;4916906;28;20705;-72
2023/05/06 05:41:17;;;;;;;11.53;7.87;;;;;;;9.20;83.00;100931.94;4917109;28;20798;-72
2023/05/06 05:43:45;;;;;;;10.47;7.90;;;;;;;9.21;83.32;100931.63;4939494;28;20219;-72
2023/05/06 05:46:11;;;;;;;10.87;8.37;;;;;;;9.21;83.51;100933.50;4919675;28;20291;-72
2023/05/06 05:48:39;;;;;;;11.80;7.90;;;;;;;9.20;83.21;100930.09;4918779;28;20684;-72
2023/05/06 05:51:10;;;;;;;12.50;8.03;;;;;;;9.22;83.27;100940.31;4936580;28;20219;-71
2023/05/06 05:53:37;;;;;;;10.37;7.30;;;;;;;9.22;83.51;100935.81;4922077;28;20608;-72
2023/05/06 05:56:06;;;;;;;9.03;6.83;;;;;;;9.23;83.13;100939.22;4915575;28;20774;-71
2023/05/06 05:58:32;;;;;;;12.20;7.80;;;;;;;9.22;83.43;100932.41;4917116;28;20271;-72
2023/05/06 06:01:00;;;;;;;10.67;7.90;;;;;;;9.22;83.24;100935.81;4915514;28;20216;-71
2023/05/06 06:03:26;;;;;;;9.83;7.90;;;;;;;9.21;83.44;100923.72;4908648;28;20228;-72
2023/05/06 06:05:54;;;;;;;9.70;7.63;;;;;;;9.22;83.57;100927.16;4933621;28;20227;-72
2023/05/06 06:08:21;;;;;;;11.70;8.17;;;;;;;9.22;83.88;100929.78;4930484;28;20566;-71
2023/05/06 06:10:51;;;;;;;9.33;7.83;;;;;;;9.22;83.46;100920.00;4912943;28;20758;-71
2023/05/06 06:13:23;;;;;;;9.97;7.67;;;;;;;9.23;84.16;100928.69;4914348;28;20226;-72
2023/05/06 06:15:49;;;;;;;11.83;8.20;;;;;;;9.23;83.91;100929.50;4917726;28;20216;-72
2023/05/06 06:18:15;;;;;;;11.03;8.13;;;;;;;9.24;83.93;100932.88;4930930;28;20566;-72
2023/05/06 06:20:42;;;;;;;10.43;7.83;;;;;;;9.24;84.17;100928.41;4934091;28;20199;-72
2023/05/06 06:23:09;;;;;;;10.23;8.00;;;;;;;9.27;83.98;100934.91;4913516;28;20315;-71
2023/05/06 06:25:36;;;;;;;9.47;7.50;;;;;;;9.28;84.49;100933.81;4914850;28;20695;-71
2023/05/06 06:28:04;;;;;;;9.37;8.07;;;;;;;9.29;83.79;100945.91;4927990;28;20226;-71
2023/05/06 06:30:30;;;;;;;11.17;7.13;;;;;;;9.30;83.95;100940.34;4916499;28;20261;-71
2023/05/06 06:32:57;;;;;;;9.50;8.03;;;;;;;9.33;84.01;100941.59;4919499;28;20249;-72
2023/05/06 06:35:25;;;;;;;9.43;7.60;;;;;;;9.34;84.31;100943.91;4914562;28;20216;-71
2023/05/06 06:37:52;;;;;;;10.83;8.13;;;;;;;9.36;84.44;100944.38;4915519;28;20203;-71
2023/05/06 06:40:18;;;;;;;12.80;7.80;;;;;;;9.37;84.28;100951.19;4936298;28;20689;-71
2023/05/06 06:42:46;;;;;;;9.50;7.23;;;;;;;9.39;83.88;100949.03;4931638;28;20231;-71
2023/05/06 06:45:33;;;;;;;12.03;6.77;;;;;;;9.43;84.17;100949.19;4912557;28;20714;-71
2023/05/06 06:48:00;;;;;;;11.97;7.00;;;;;;;9.44;83.98;100945.47;4921291;28;20204;-71
2023/05/06 06:50:26;;;;;;;10.97;7.57;;;;;;;9.47;83.87;100948.25;4927961;28;20489;-72
2023/05/06 06:52:53;;;;;;;8.50;7.50;;;;;;;9.49;84.09;100951.38;4909744;28;20228;-72
2023/05/06 06:55:20;;;;;;;14.53;7.97;;;;;;;9.51;84.06;100956.31;4930580;28;20275;-72
2023/05/06 06:57:46;;;;;;;11.87;8.30;;;;;;;9.53;84.00;100957.56;4912903;28;20223;-72
2023/05/06 07:00:13;;;;;;;11.43;9.00;;;;;;;9.56;84.05;100954.31;4934127;28;20519;-72
2023/05/06 07:02:41;;;;;;;11.07;8.10;;;;;;;9.58;83.94;100948.75;4930444;28;20231;-73
2023/05/06 07:05:08;;;;;;;9.83;7.80;;;;;;;9.61;84.55;100966.56;4931929;28;20223;-71
2023/05/06 07:07:34;;;;;;;10.43;8.27;;;;;;;9.63;84.22;100970.44;4934353;28;20212;-72
2023/05/06 07:10:01;;;;;;;10.90;7.93;;;;;;;9.63;84.29;100957.25;4932431;28;20224;-71
2023/05/06 07:12:27;;;;;;;9.53;7.83;;;;;;;9.63;84.15;100962.53;4933434;28;20239;-72
2023/05/06 07:14:53;;;;;;;10.90;8.10;;;;;;;9.64;84.47;100964.09;4933604;28;20243;-72
2023/05/06 07:17:20;;;;;;;10.77;7.10;;;;;;;9.65;84.58;100964.88;4941930;28;20209;-72
2023/05/06 07:19:47;;;;;;;10.47;7.60;;;;;;;9.64;84.13;100972.00;4939396;28;20200;-71
2023/05/06 07:22:14;;;;;;;12.17;7.67;;;;;;;9.65;84.17;100970.16;4938379;28;20239;-73
2023/05/06 07:24:40;;;;;;;8.57;6.83;;;;;;;9.66;83.91;100977.75;4935987;28;20643;-72
2023/05/06 07:27:07;;;;;;;12.93;7.70;;;;;;;9.67;84.09;100976.66;4940790;28;20695;-71
2023/05/06 07:29:35;;;;;;;8.87;6.53;;;;;;;9.68;84.13;100974.81;4939628;28;20224;-72
2023/05/06 07:32:01;;;;;;;7.53;6.63;;;;;;;9.68;84.27;100972.94;4938646;28;20210;-71
2023/05/06 07:34:28;;;;;;;8.83;6.97;;;;;;;9.68;84.45;100974.81;4927070;28;20221;-73
2023/05/06 07:36:56;;;;;;;8.50;6.50;;;;;;;9.69;83.97;100976.34;4937613;28;20217;-72
2023/05/06 07:39:22;;;;;;;8.80;6.43;;;;;;;9.70;84.21;100981.34;4931879;28;20208;-72
2023/05/06 07:41:49;;;;;;;6.90;6.20;;;;;;;9.70;84.40;100989.25;4929533;28;20204;-72
2023/05/06 07:44:15;;;;;;;7.63;6.47;;;;;;;9.71;84.39;100996.06;4933516;28;20269;-71
2023/05/06 07:46:41;;;;;;;8.70;7.27;;;;;;;9.71;83.97;100993.44;4926728;28;20573;-73
2023/05/06 07:49:08;;;;;;;6.93;5.93;;;;;;;9.71;84.00;100993.44;4936065;28;20208;-73
2023/05/06 07:51:34;;;;;;;7.33;6.13;;;;;;;9.72;84.17;100996.81;4936944;28;20240;-71
2023/05/06 07:54:02;;;;;;;10.07;7.77;;;;;;;9.73;83.76;101006.31;4936338;28;20258;-72
2023/05/06 07:56:28;;;;;;;10.00;8.10;;;;;;;9.75;83.56;100999.63;4936522;28;20572;-72
2023/05/06 07:58:55;;;;;;;7.20;6.27;;;;;;;9.78;83.71;101008.78;4936455;28;20212;-72
2023/05/06 08:01:21;;;;;;;7.27;6.23;;;;;;;9.80;84.28;100999.50;4935496;28;20213;-72
2023/05/06 08:03:47;;;;;;;6.77;5.00;;;;;;;9.83;84.05;100992.81;4935985;28;20727;-72
2023/05/06 08:06:14;;;;;;;7.10;6.03;;;;;;;9.85;84.09;100995.91;4937954;28;20220;-72
2023/05/06 08:08:40;;;;;;;6.90;5.47;;;;;;;9.86;84.42;100987.69;4938907;28;20220;-72
2023/05/06 08:11:08;;;;;;;6.97;6.23;;;;;;;9.89;84.38;101004.75;4936684;28;20227;-71
2023/05/06 08:13:34;;;;;;;7.40;6.17;;;;;;;9.92;84.37;101004.13;4938163;28;20622;-72
2023/05/06 08:16:01;;;;;;;8.53;6.40;;;;;;;9.92;84.56;101010.19;4937140;28;20352;-71
2023/05/06 08:18:28;;;;;;;7.77;6.00;;;;;;;9.95;84.31;101009.56;4932742;28;20225;-72
2023/05/06 08:20:55;;;;;;;7.90;6.93;;;;;;;9.98;84.80;101002.88;4922099;28;20300;-72
2023/05/06 08:23:34;;;;;;;7.67;5.80;;;;;;;10.02;84.43;101009.09;4932110;28;20615;-73
2023/05/06 08:26:23;;;;;;;6.93;5.93;;;;;;;10.03;84.09;101005.38;4922927;28;20249;-72
2023/05/06 08:29:01;;;;;;;8.60;6.37;;;;;;;10.06;83.99;101015.34;4932622;28;20199;-71
2023/05/06 08:31:28;;;;;;;7.77;6.17;;;;;;;10.08;84.37;101005.25;4928910;28;20229;-71
2023/05/06 08:33:54;;;;;;;6.83;5.70;;;;;;;10.11;84.09;101013.34;4931282;28;20241;-72
2023/05/06 08:36:21;;;;;;;7.23;6.43;;;;;;;10.13;84.63;101016.44;4931965;28;20590;-72
2023/05/06 08:38:49;;;;;;;7.13;5.63;;;;;;;10.16;84.11;101015.03;4932924;28;20305;-72
2023/05/06 08:41:21;;;;;;;7.63;6.00;;;;;;;10.19;83.90;101014.41;4932792;28;20699;-72
2023/05/06 08:44:19;;;;;;;9.00;7.30;;;;;;;10.20;83.92;101018.59;4931156;28;20559;-73
2023/05/06 08:46:46;;;;;;;7.30;6.33;;;;;;;10.22;83.98;101022.47;4888842;28;20978;-72
2023/05/06 08:49:12;;;;;;;8.60;6.00;;;;;;;10.26;84.54;101030.56;4929292;28;20730;-71
2023/05/06 08:51:43;;;;;;;7.90;6.20;;;;;;;10.27;84.14;101038.16;4928604;28;20709;-72
2023/05/06 08:54:10;;;;;;;7.83;6.33;;;;;;;10.30;83.73;101042.03;4931348;28;20241;-73
2023/05/06 08:56:43;;;;;;;8.37;5.90;;;;;;;10.32;83.91;101040.66;4935723;28;20221;-71
2023/05/06 08:59:09;;;;;;;6.27;5.40;;;;;;;10.35;83.70;101036.59;4932766;28;20214;-71
2023/05/06 09:01:35;;;;;;;7.50;6.23;;;;;;;10.39;83.79;101046.22;4929597;28;20281;-72
2023/05/06 09:04:03;;;;;;;9.60;7.03;;;;;;;10.45;84.40;101054.75;4932281;28;20240;-72
2023/05/06 09:06:30;;;;;;;7.97;6.37;;;;;;;10.49;83.90;101050.38;4915868;28;20279;-72
2023/05/06 09:08:56;;;;;;;8.03;6.27;;;;;;;10.50;83.93;101049.31;4936972;28;20212;-71
2023/05/06 09:11:24;;;;;;;6.57;5.73;;;;;;;10.52;83.85;101052.41;4937753;28;20766;-72
2023/05/06 09:14:07;;;;;;;6.97;6.17;;;;;;;10.53;83.80;101048.69;4933842;28;20224;-72
2023/05/06 09:16:34;;;;;;;6.83;5.50;;;;;;;10.53;83.61;101060.03;4934685;28;20209;-72
2023/05/06 09:19:00;;;;;;;6.00;5.40;;;;;;;10.51;83.33;101056.91;4934405;28;20233;-71
2023/05/06 09:21:33;;;;;;;5.47;4.70;;;;;;;10.49;82.81;101053.81;4932905;28;20207;-72
2023/05/06 09:24:00;;;;;;;5.50;4.90;;;;;;;10.47;83.14;101058.66;4934990;28;20233;-71
2023/05/06 09:26:28;;;;;;;5.50;4.87;;;;;;;10.45;83.22;101066.09;4933976;28;20754;-72
2023/05/06 09:28:56;;;;;;;5.70;4.70;;;;;;;10.44;83.47;101067.19;4915789;28;20221;-72
2023/05/06 09:31:22;;;;;;;5.30;4.80;;;;;;;10.43;83.29;101070.13;4926170;28;20307;-71
2023/05/06 09:33:48;;;;;;;6.33;5.07;;;;;;;10.43;83.05;101078.03;4926698;28;20416;-72
2023/05/06 09:36:15;;;;;;;4.90;4.30;;;;;;;10.43;82.80;101088.59;4932297;28;20206;-72
2023/05/06 09:38:41;;;;;;;5.70;4.63;;;;;;;10.41;83.79;101083.63;4930253;28;20392;-71
2023/05/06 09:41:08;;;;;;;5.67;5.10;;;;;;;10.42;83.37;101079.91;4928950;28;20210;-71
2023/05/06 09:43:35;;;;;;;5.53;4.93;;;;;;;10.43;83.95;101086.75;4930783;28;20596;-71
2023/05/06 09:46:04;;;;;;;6.43;4.93;;;;;;;10.43;83.49;101089.38;4929580;28;20245;-71
2023/05/06 09:48:31;;;;;;;4.90;4.40;;;;;;;10.43;83.70;101097.31;4929182;28;20303;-72
2023/05/06 09:50:59;;;;;;;5.13;4.63;;;;;;;10.45;83.94;101094.38;4932737;28;22284;-71
2023/05/06 09:53:27;;;;;;;5.33;4.20;;;;;;;10.42;83.78;101106.31;4929963;28;20225;-72
2023/05/06 09:55:57;;;;;;;5.40;4.47;;;;;;;10.43;83.28;101107.88;4925253;28;20376;-72
2023/05/06 09:58:24;;;;;;;5.33;4.83;;;;;;;10.42;83.18;101106.31;4929415;28;20203;-72
2023/05/06 10:00:52;;;;;;;5.63;5.07;;;;;;;10.41;83.54;101106.63;4927524;28;20201;-71
2023/05/06 10:03:22;;;;;;;5.37;4.80;;;;;;;10.43;83.71;101107.88;4930600;28;20238;-71
2023/05/06 10:05:48;;;;;;;6.13;5.30;;;;;;;10.45;83.57;101104.94;4929745;28;20207;-72
2023/05/06 10:08:17;;;;;;;5.60;5.00;;;;;;;10.45;82.99;101110.22;4929180;28;20227;-72
2023/05/06 10:10:45;;;;;;;5.70;5.10;;;;;;;10.45;82.97;101107.56;4930168;28;20226;-73
2023/05/06 10:13:12;;;;;;;5.30;4.80;;;;;;;10.46;83.77;101111.75;4929048;28;20235;-72
2023/05/06 10:15:47;;;;;;;4.67;4.20;;;;;;;10.49;84.08;101109.25;4929903;28;20225;-72
2023/05/06 10:19:16;;;;;;;5.90;5.03;;;;;;;10.51;83.63;101107.06;4931269;28;20280;-72
2023/05/06 10:22:20;;;;;;;5.40;4.77;;;;;;;10.52;83.04;101110.50;4917317;28;20629;-71
2023/05/06 10:25:27;;;;;;;5.27;4.67;;;;;;;10.54;83.58;101108.31;4928770;28;20214;-73
2023/05/06 10:28:00;;;;;;;5.40;4.60;;;;;;;10.55;83.46;101101.94;4922919;28;20214;-72
2023/05/06 10:30:28;;;;;;;5.37;4.83;;;;;;;10.56;83.42;101093.72;4932436;28;23319;-71
2023/05/06 10:32:56;;;;;;;6.40;5.20;;;;;;;10.58;83.06;101094.19;4925654;28;20230;-71
2023/05/06 10:35:49;;;;;;;4.40;3.90;;;;;;;10.59;83.51;101093.09;4927392;28;20272;-72
2023/05/06 10:38:23;;;;;;;5.30;4.70;;;;;;;10.64;83.80;101103.50;4925961;28;20712;-71
2023/05/06 10:40:51;;;;;;;5.20;4.47;;;;;;;10.66;83.42;101103.97;4930364;28;20221;-72
2023/05/06 10:43:22;;;;;;;4.73;4.20;;;;;;;10.68;83.73;101101.00;4930503;28;20646;-70
2023/05/06 10:46:03;;;;;;;6.07;4.53;;;;;;;10.70;83.40;101107.53;4929413;28;20237;-69
2023/05/06 10:48:30;;;;;;;5.37;4.67;;;;;;;10.72;83.33;101109.88;4930048;28;20617;-72
2023/05/06 10:51:27;;;;;;;4.73;4.23;;;;;;;10.78;83.32;101112.03;4937882;28;20225;-72
2023/05/06 10:53:58;;;;;;;4.57;3.77;;;;;;;10.81;83.08;101110.63;4922869;28;20276;-72
2023/05/06 10:56:25;;;;;;;4.40;4.00;;;;;;;10.82;82.85;101109.53;4922920;28;20229;-72
2023/05/06 10:58:53;;;;;;;4.77;4.23;;;;;;;10.84;83.60;101110.00;4924031;28;20209;-71
2023/05/06 11:01:21;;;;;;;5.57;3.70;;;;;;;10.86;83.71;101110.44;4928719;28;20217;-72
2023/05/06 11:03:50;;;;;;;3.93;3.53;;;;;;;10.88;82.63;101103.75;4932259;28;20887;-72
2023/05/06 11:09:17;;;;;;;4.03;3.60;;;;;;;10.96;82.80;101099.53;5066040;27;20657;-72
2023/05/06 11:11:49;;;;;;;6.00;4.37;;;;;;;10.98;83.09;101111.34;5040566;28;20317;-71
2023/05/06 11:14:25;;;;;;;3.60;3.30;;;;;;;10.98;82.42;101118.53;5027384;28;20223;-72
2023/05/06 11:20:18;;;;;;;4.63;3.80;;;;;;;10.95;82.69;101127.84;5013600;28;20606;-71
2023/05/06 11:22:45;;;;;;;7.00;5.40;;;;;;;10.96;82.31;101131.25;5019486;28;20538;-71
2023/05/06 11:25:13;;;;;;;4.33;3.57;;;;;;;10.97;82.55;101138.13;5022395;28;20196;-71
2023/05/06 11:28:09;;;;;;;5.90;5.30;;;;;;;10.96;83.07;101136.53;5018268;28;20216;-72
2023/05/06 11:30:38;;;;;;;5.87;4.53;;;;;;;10.96;82.03;101137.31;5022872;28;20211;-72
2023/05/06 11:36:27;;;;;;;3.50;3.20;;;;;;;10.98;82.20;101139.66;5044326;28;20306;-72
2023/05/06 11:38:55;;;;;;;3.47;3.17;;;;;;;10.97;82.32;101133.59;5023970;28;20752;-72
2023/05/06 11:41:23;;;;;;;3.67;3.37;;;;;;;11.02;82.55;101143.25;5020247;28;20207;-72
2023/05/06 11:43:51;;;;;;;4.40;3.70;;;;;;;11.05;82.41;101140.75;5022516;28;20259;-71
2023/05/06 11:46:18;;;;;;;7.77;4.13;;;;;;;11.10;82.35;101145.06;5024344;28;20207;-71
2023/05/06 11:48:45;;;;;;;5.10;4.20;;;;;;;11.14;82.59;101146.00;5024441;28;20235;-72
2023/05/06 11:51:12;;;;;;;5.83;4.37;;;;;;;11.17;81.91;101158.56;5027954;28;20218;-72
2023/05/06 11:53:38;;;;;;;6.47;4.70;;;;;;;11.17;82.19;101156.72;5029365;28;20243;-72